Kellerton, Iowa
Current Conditions -  °F | °C
As of 1:53 AM on Saturday 20 Dec 2014 (Local Time) from KLWD Reporting Station
Haze Haze  
Wind Chill: 25°   Ceiling: 600
Heat Index: 30°   Visibility: 4mi
Dew Point: 30°   Wind: 5mph
Humidity: 100%   Direction: 200°SSW
Pressure: 30.18"   Gusts: NA
Location:  40.71°N, 94.05°W
Report Text: KLWD 200753Z AUTO 20004KT 4SM BR OVC006 M01/M01 A3018 RMK AO2 SNB03E26B34E45 CIG 005V010 SLP231 P0000 T10111011
Loading
Personal Weather Stations






























Interactive Weather Map New forecast layout! Learn more

10-Day Weather Forecast

Advertisements
Track Severe Weather on mobile